sensor_id;sensor_type;location;lat;lon;timestamp;temperature;humidity
11284;DHT22;5698;47.332;11.180;2023-04-24T00:01:39;6.40;99.90
11284;DHT22;5698;47.332;11.180;2023-04-24T00:04:06;6.40;99.90
11284;DHT22;5698;47.332;11.180;2023-04-24T00:06:36;6.40;99.90
11284;DHT22;5698;47.332;11.180;2023-04-24T00:09:03;6.30;99.90
11284;DHT22;5698;47.332;11.180;2023-04-24T00:11:30;6.20;99.90
11284;DHT22;5698;47.332;11.180;2023-04-24T00:13:58;6.20;99.90
11284;DHT22;5698;47.332;11.180;2023-04-24T00:16:25;6.10;99.90
11284;DHT22;5698;47.332;11.180;2023-04-24T00:18:53;6.00;99.90
11284;DHT22;5698;47.332;11.180;2023-04-24T00:21:21;6.00;99.90
11284;DHT22;5698;47.332;11.180;2023-04-24T00:23:51;6.00;99.90
11284;DHT22;5698;47.332;11.180;2023-04-24T00:26:18;6.00;99.90
11284;DHT22;5698;47.332;11.180;2023-04-24T00:28:45;6.00;99.90
11284;DHT22;5698;47.332;11.180;2023-04-24T00:31:12;6.00;99.90
11284;DHT22;5698;47.332;11.180;2023-04-24T00:33:39;5.90;99.90
11284;DHT22;5698;47.332;11.180;2023-04-24T00:36:07;5.80;99.90
11284;DHT22;5698;47.332;11.180;2023-04-24T00:38:34;5.80;99.90
11284;DHT22;5698;47.332;11.180;2023-04-24T00:41:01;5.80;99.90
11284;DHT22;5698;47.332;11.180;2023-04-24T00:43:28;5.70;99.90
11284;DHT22;5698;47.332;11.180;2023-04-24T00:45:55;5.70;99.90
11284;DHT22;5698;47.332;11.180;2023-04-24T00:48:23;5.70;99.90
11284;DHT22;5698;47.332;11.180;2023-04-24T00:50:50;5.60;99.90
11284;DHT22;5698;47.332;11.180;2023-04-24T00:53:19;5.50;99.90
11284;DHT22;5698;47.332;11.180;2023-04-24T00:55:46;5.40;99.90
11284;DHT22;5698;47.332;11.180;2023-04-24T00:58:13;5.40;99.90
11284;DHT22;5698;47.332;11.180;2023-04-24T01:00:40;5.40;99.90
11284;DHT22;5698;47.332;11.180;2023-04-24T01:03:08;5.20;99.90
11284;DHT22;5698;47.332;11.180;2023-04-24T01:05:36;5.00;99.90
11284;DHT22;5698;47.332;11.180;2023-04-24T01:08:03;5.00;99.90
11284;DHT22;5698;47.332;11.180;2023-04-24T01:10:33;4.80;99.90
11284;DHT22;5698;47.332;11.180;2023-04-24T01:13:01;4.90;99.90
11284;DHT22;5698;47.332;11.180;2023-04-24T01:15:28;4.90;99.90
11284;DHT22;5698;47.332;11.180;2023-04-24T01:17:55;4.80;99.90
11284;DHT22;5698;47.332;11.180;2023-04-24T01:20:22;4.80;99.90
11284;DHT22;5698;47.332;11.180;2023-04-24T01:22:54;4.90;99.90
11284;DHT22;5698;47.332;11.180;2023-04-24T01:25:22;4.70;99.90
11284;DHT22;5698;47.332;11.180;2023-04-24T01:27:49;4.60;99.90
11284;DHT22;5698;47.332;11.180;2023-04-24T01:30:17;4.50;99.90
11284;DHT22;5698;47.332;11.180;2023-04-24T01:32:44;4.40;99.90
11284;DHT22;5698;47.332;11.180;2023-04-24T01:35:12;4.30;99.90
11284;DHT22;5698;47.332;11.180;2023-04-24T01:37:39;4.30;99.90
11284;DHT22;5698;47.332;11.180;2023-04-24T01:40:08;4.30;99.90
11284;DHT22;5698;47.332;11.180;2023-04-24T01:42:35;4.30;99.90
11284;DHT22;5698;47.332;11.180;2023-04-24T01:45:04;4.30;99.90
11284;DHT22;5698;47.332;11.180;2023-04-24T01:47:31;4.20;99.90
11284;DHT22;5698;47.332;11.180;2023-04-24T01:49:58;4.10;99.90
11284;DHT22;5698;47.332;11.180;2023-04-24T01:52:25;4.00;99.90
11284;DHT22;5698;47.332;11.180;2023-04-24T01:54:54;4.00;99.90
11284;DHT22;5698;47.332;11.180;2023-04-24T01:57:23;4.00;99.90
11284;DHT22;5698;47.332;11.180;2023-04-24T01:59:51;3.90;99.90
11284;DHT22;5698;47.332;11.180;2023-04-24T02:02:18;3.90;99.90
11284;DHT22;5698;47.332;11.180;2023-04-24T02:04:46;3.90;99.90
11284;DHT22;5698;47.332;11.180;2023-04-24T02:07:13;3.80;99.90
11284;DHT22;5698;47.332;11.180;2023-04-24T02:09:40;3.90;99.90
11284;DHT22;5698;47.332;11.180;2023-04-24T02:12:07;4.00;99.90
11284;DHT22;5698;47.332;11.180;2023-04-24T02:14:35;4.00;99.90
11284;DHT22;5698;47.332;11.180;2023-04-24T02:17:03;4.10;99.90
11284;DHT22;5698;47.332;11.180;2023-04-24T02:19:30;4.20;99.90
11284;DHT22;5698;47.332;11.180;2023-04-24T02:21:57;4.10;99.90
11284;DHT22;5698;47.332;11.180;2023-04-24T02:24:24;4.10;99.90
11284;DHT22;5698;47.332;11.180;2023-04-24T02:26:51;4.00;99.90
11284;DHT22;5698;47.332;11.180;2023-04-24T02:29:18;4.00;99.90
11284;DHT22;5698;47.332;11.180;2023-04-24T02:31:46;4.00;99.90
11284;DHT22;5698;47.332;11.180;2023-04-24T02:34:13;4.00;99.90
11284;DHT22;5698;47.332;11.180;2023-04-24T02:36:40;4.10;99.90
11284;DHT22;5698;47.332;11.180;2023-04-24T02:39:07;4.10;99.90
11284;DHT22;5698;47.332;11.180;2023-04-24T02:41:34;4.20;99.90
11284;DHT22;5698;47.332;11.180;2023-04-24T02:44:01;4.30;99.90
11284;DHT22;5698;47.332;11.180;2023-04-24T02:46:28;4.20;99.90
11284;DHT22;5698;47.332;11.180;2023-04-24T02:48:57;4.20;99.90
11284;DHT22;5698;47.332;11.180;2023-04-24T02:51:24;4.10;99.90
11284;DHT22;5698;47.332;11.180;2023-04-24T02:53:51;4.10;99.90
11284;DHT22;5698;47.332;11.180;2023-04-24T02:56:18;4.20;99.90
11284;DHT22;5698;47.332;11.180;2023-04-24T02:58:45;4.10;99.90
11284;DHT22;5698;47.332;11.180;2023-04-24T03:01:12;4.10;99.90
11284;DHT22;5698;47.332;11.180;2023-04-24T03:03:39;4.00;99.90
11284;DHT22;5698;47.332;11.180;2023-04-24T03:06:07;4.00;99.90
11284;DHT22;5698;47.332;11.180;2023-04-24T03:08:35;4.10;99.90
11284;DHT22;5698;47.332;11.180;2023-04-24T03:11:02;4.20;99.90
11284;DHT22;5698;47.332;11.180;2023-04-24T03:13:29;4.10;99.90
11284;DHT22;5698;47.332;11.180;2023-04-24T03:15:56;4.10;99.90
11284;DHT22;5698;47.332;11.180;2023-04-24T03:18:23;4.20;99.90
11284;DHT22;5698;47.332;11.180;2023-04-24T03:20:49;4.20;99.90
11284;DHT22;5698;47.332;11.180;2023-04-24T03:23:18;4.30;99.90
11284;DHT22;5698;47.332;11.180;2023-04-24T03:25:45;4.10;99.90
11284;DHT22;5698;47.332;11.180;2023-04-24T03:28:14;4.10;99.90
11284;DHT22;5698;47.332;11.180;2023-04-24T03:30:41;4.20;99.90
11284;DHT22;5698;47.332;11.180;2023-04-24T03:33:08;4.20;99.90
11284;DHT22;5698;47.332;11.180;2023-04-24T03:35:35;4.30;99.90
11284;DHT22;5698;47.332;11.180;2023-04-24T03:38:02;4.40;99.90
11284;DHT22;5698;47.332;11.180;2023-04-24T03:40:31;4.40;99.90
11284;DHT22;5698;47.332;11.180;2023-04-24T03:42:59;4.50;99.90
11284;DHT22;5698;47.332;11.180;2023-04-24T03:45:26;4.50;99.90
11284;DHT22;5698;47.332;11.180;2023-04-24T03:47:53;4.60;99.90
11284;DHT22;5698;47.332;11.180;2023-04-24T03:50:20;4.60;99.90
11284;DHT22;5698;47.332;11.180;2023-04-24T03:52:47;4.60;99.90
11284;DHT22;5698;47.332;11.180;2023-04-24T03:55:14;4.60;99.90
11284;DHT22;5698;47.332;11.180;2023-04-24T03:57:42;4.60;99.90
11284;DHT22;5698;47.332;11.180;2023-04-24T04:00:10;4.50;99.90
11284;DHT22;5698;47.332;11.180;2023-04-24T04:02:37;4.60;99.90
11284;DHT22;5698;47.332;11.180;2023-04-24T04:05:05;4.60;99.90
11284;DHT22;5698;47.332;11.180;2023-04-24T04:07:32;4.60;99.90
11284;DHT22;5698;47.332;11.180;2023-04-24T04:09:58;4.60;99.90
11284;DHT22;5698;47.332;11.180;2023-04-24T04:12:25;4.60;99.90
11284;DHT22;5698;47.332;11.180;2023-04-24T04:14:54;4.60;99.90
11284;DHT22;5698;47.332;11.180;2023-04-24T04:17:21;4.60;99.90
11284;DHT22;5698;47.332;11.180;2023-04-24T04:19:48;4.50;99.90
11284;DHT22;5698;47.332;11.180;2023-04-24T04:22:15;4.60;99.90
11284;DHT22;5698;47.332;11.180;2023-04-24T04:24:42;4.60;99.90
11284;DHT22;5698;47.332;11.180;2023-04-24T04:27:09;4.60;99.90
11284;DHT22;5698;47.332;11.180;2023-04-24T04:29:36;4.60;99.90
11284;DHT22;5698;47.332;11.180;2023-04-24T04:32:05;4.60;99.90
11284;DHT22;5698;47.332;11.180;2023-04-24T04:34:32;4.60;99.90
11284;DHT22;5698;47.332;11.180;2023-04-24T04:36:59;4.60;99.90
11284;DHT22;5698;47.332;11.180;2023-04-24T04:39:27;4.50;99.90
11284;DHT22;5698;47.332;11.180;2023-04-24T04:41:55;4.60;99.90
11284;DHT22;5698;47.332;11.180;2023-04-24T04:44:22;4.60;99.90
11284;DHT22;5698;47.332;11.180;2023-04-24T04:46:49;4.70;99.90
11284;DHT22;5698;47.332;11.180;2023-04-24T04:49:20;4.70;99.90
11284;DHT22;5698;47.332;11.180;2023-04-24T04:51:47;4.70;99.90
11284;DHT22;5698;47.332;11.180;2023-04-24T04:54:14;4.70;99.90
11284;DHT22;5698;47.332;11.180;2023-04-24T04:56:41;4.80;99.90
11284;DHT22;5698;47.332;11.180;2023-04-24T04:59:08;4.70;99.90
11284;DHT22;5698;47.332;11.180;2023-04-24T05:01:35;4.70;99.90
11284;DHT22;5698;47.332;11.180;2023-04-24T05:04:02;4.70;99.90
11284;DHT22;5698;47.332;11.180;2023-04-24T05:06:30;4.70;99.90
11284;DHT22;5698;47.332;11.180;2023-04-24T05:08:57;4.80;99.90
11284;DHT22;5698;47.332;11.180;2023-04-24T05:11:24;4.80;99.90
11284;DHT22;5698;47.332;11.180;2023-04-24T05:13:51;4.80;99.90
11284;DHT22;5698;47.332;11.180;2023-04-24T05:16:18;4.80;99.90
11284;DHT22;5698;47.332;11.180;2023-04-24T05:18:45;4.80;99.90
11284;DHT22;5698;47.332;11.180;2023-04-24T05:21:12;4.80;99.90
11284;DHT22;5698;47.332;11.180;2023-04-24T05:23:40;4.90;99.90
11284;DHT22;5698;47.332;11.180;2023-04-24T05:26:07;4.90;99.90
11284;DHT22;5698;47.332;11.180;2023-04-24T05:28:34;4.90;99.90
11284;DHT22;5698;47.332;11.180;2023-04-24T05:31:02;4.90;99.90
11284;DHT22;5698;47.332;11.180;2023-04-24T05:33:29;4.80;99.90
11284;DHT22;5698;47.332;11.180;2023-04-24T05:35:57;4.80;99.90
11284;DHT22;5698;47.332;11.180;2023-04-24T05:38:24;4.90;99.90
11284;DHT22;5698;47.332;11.180;2023-04-24T05:40:52;4.80;99.90
11284;DHT22;5698;47.332;11.180;2023-04-24T05:43:19;4.90;99.90
11284;DHT22;5698;47.332;11.180;2023-04-24T05:45:46;4.90;99.90
11284;DHT22;5698;47.332;11.180;2023-04-24T05:48:13;4.90;99.90
11284;DHT22;5698;47.332;11.180;2023-04-24T05:50:40;4.90;99.90
11284;DHT22;5698;47.332;11.180;2023-04-24T05:53:07;4.90;99.90
11284;DHT22;5698;47.332;11.180;2023-04-24T05:55:36;4.90;99.90
11284;DHT22;5698;47.332;11.180;2023-04-24T05:58:05;4.90;99.90
11284;DHT22;5698;47.332;11.180;2023-04-24T06:00:32;4.90;99.90
11284;DHT22;5698;47.332;11.180;2023-04-24T06:02:59;4.90;99.90
11284;DHT22;5698;47.332;11.180;2023-04-24T06:05:29;4.90;99.90
11284;DHT22;5698;47.332;11.180;2023-04-24T06:07:56;4.90;99.90
11284;DHT22;5698;47.332;11.180;2023-04-24T06:10:23;4.90;99.90
11284;DHT22;5698;47.332;11.180;2023-04-24T06:12:50;4.90;99.90
11284;DHT22;5698;47.332;11.180;2023-04-24T06:15:18;4.90;99.90
11284;DHT22;5698;47.332;11.180;2023-04-24T06:17:45;5.00;99.90
11284;DHT22;5698;47.332;11.180;2023-04-24T06:20:12;5.00;99.90
11284;DHT22;5698;47.332;11.180;2023-04-24T06:22:39;5.00;99.90
11284;DHT22;5698;47.332;11.180;2023-04-24T06:25:07;5.00;99.90
11284;DHT22;5698;47.332;11.180;2023-04-24T06:27:34;5.00;99.90
11284;DHT22;5698;47.332;11.180;2023-04-24T06:30:01;5.10;99.90
11284;DHT22;5698;47.332;11.180;2023-04-24T06:32:29;5.10;99.90
11284;DHT22;5698;47.332;11.180;2023-04-24T06:34:57;5.10;99.90
11284;DHT22;5698;47.332;11.180;2023-04-24T06:37:24;5.20;99.90
11284;DHT22;5698;47.332;11.180;2023-04-24T06:39:51;5.20;99.90
11284;DHT22;5698;47.332;11.180;2023-04-24T06:42:18;5.20;99.90
11284;DHT22;5698;47.332;11.180;2023-04-24T06:44:46;5.20;99.90
11284;DHT22;5698;47.332;11.180;2023-04-24T06:47:13;5.20;99.90
11284;DHT22;5698;47.332;11.180;2023-04-24T06:49:42;5.30;99.90
11284;DHT22;5698;47.332;11.180;2023-04-24T06:52:09;5.30;99.90
11284;DHT22;5698;47.332;11.180;2023-04-24T06:54:36;5.30;99.90
11284;DHT22;5698;47.332;11.180;2023-04-24T06:57:03;5.30;99.90
11284;DHT22;5698;47.332;11.180;2023-04-24T06:59:30;5.40;99.90
11284;DHT22;5698;47.332;11.180;2023-04-24T07:01:57;5.40;99.90
11284;DHT22;5698;47.332;11.180;2023-04-24T07:04:24;5.40;99.90
11284;DHT22;5698;47.332;11.180;2023-04-24T07:06:53;5.50;99.90
11284;DHT22;5698;47.332;11.180;2023-04-24T07:09:22;5.50;99.90
11284;DHT22;5698;47.332;11.180;2023-04-24T07:11:49;5.60;99.90
11284;DHT22;5698;47.332;11.180;2023-04-24T07:14:17;5.60;99.90
11284;DHT22;5698;47.332;11.180;2023-04-24T07:16:44;5.60;99.90
11284;DHT22;5698;47.332;11.180;2023-04-24T07:19:11;5.60;99.90
11284;DHT22;5698;47.332;11.180;2023-04-24T07:21:39;5.60;99.90
11284;DHT22;5698;47.332;11.180;2023-04-24T07:24:07;5.60;99.90
11284;DHT22;5698;47.332;11.180;2023-04-24T07:26:37;5.60;99.90
11284;DHT22;5698;47.332;11.180;2023-04-24T07:29:05;5.60;99.90
11284;DHT22;5698;47.332;11.180;2023-04-24T07:31:32;5.70;99.90
11284;DHT22;5698;47.332;11.180;2023-04-24T07:33:59;5.80;99.90
11284;DHT22;5698;47.332;11.180;2023-04-24T07:36:26;5.80;99.90
11284;DHT22;5698;47.332;11.180;2023-04-24T07:38:54;5.90;99.90
11284;DHT22;5698;47.332;11.180;2023-04-24T07:41:22;5.90;99.90
11284;DHT22;5698;47.332;11.180;2023-04-24T07:43:49;6.00;99.90
11284;DHT22;5698;47.332;11.180;2023-04-24T07:46:16;6.10;99.90
11284;DHT22;5698;47.332;11.180;2023-04-24T07:48:43;6.20;99.90
11284;DHT22;5698;47.332;11.180;2023-04-24T07:51:11;6.30;99.90
11284;DHT22;5698;47.332;11.180;2023-04-24T07:53:39;6.30;99.90
11284;DHT22;5698;47.332;11.180;2023-04-24T07:56:06;6.50;99.90
11284;DHT22;5698;47.332;11.180;2023-04-24T07:58:34;6.50;99.90
11284;DHT22;5698;47.332;11.180;2023-04-24T08:01:01;6.40;99.90
11284;DHT22;5698;47.332;11.180;2023-04-24T08:03:28;6.40;99.90
11284;DHT22;5698;47.332;11.180;2023-04-24T08:05:55;6.50;99.90
11284;DHT22;5698;47.332;11.180;2023-04-24T08:08:22;6.60;99.90
11284;DHT22;5698;47.332;11.180;2023-04-24T08:10:49;6.40;99.90
11284;DHT22;5698;47.332;11.180;2023-04-24T08:13:18;6.50;99.90
11284;DHT22;5698;47.332;11.180;2023-04-24T08:15:47;6.70;99.90
11284;DHT22;5698;47.332;11.180;2023-04-24T08:18:14;6.70;99.90
11284;DHT22;5698;47.332;11.180;2023-04-24T08:20:41;6.80;99.90
11284;DHT22;5698;47.332;11.180;2023-04-24T08:23:08;7.00;99.90
11284;DHT22;5698;47.332;11.180;2023-04-24T08:25:35;7.10;99.90
11284;DHT22;5698;47.332;11.180;2023-04-24T08:28:02;7.20;99.90
11284;DHT22;5698;47.332;11.180;2023-04-24T08:30:29;7.30;99.90
11284;DHT22;5698;47.332;11.180;2023-04-24T08:32:58;7.40;99.90
11284;DHT22;5698;47.332;11.180;2023-04-24T08:35:25;7.40;99.90
11284;DHT22;5698;47.332;11.180;2023-04-24T08:37:52;7.40;99.90
11284;DHT22;5698;47.332;11.180;2023-04-24T08:40:22;7.50;99.90
11284;DHT22;5698;47.332;11.180;2023-04-24T08:42:54;7.50;99.90
11284;DHT22;5698;47.332;11.180;2023-04-24T08:45:21;7.60;99.90
11284;DHT22;5698;47.332;11.180;2023-04-24T08:47:49;7.60;99.90
11284;DHT22;5698;47.332;11.180;2023-04-24T08:50:18;7.70;99.90
11284;DHT22;5698;47.332;11.180;2023-04-24T08:52:45;7.80;99.90
11284;DHT22;5698;47.332;11.180;2023-04-24T08:55:12;7.90;99.90
11284;DHT22;5698;47.332;11.180;2023-04-24T08:57:40;7.90;99.90
11284;DHT22;5698;47.332;11.180;2023-04-24T09:00:10;7.90;99.90
11284;DHT22;5698;47.332;11.180;2023-04-24T09:02:40;8.00;99.90
11284;DHT22;5698;47.332;11.180;2023-04-24T09:05:09;8.10;99.90
11284;DHT22;5698;47.332;11.180;2023-04-24T09:07:39;8.10;99.90
11284;DHT22;5698;47.332;11.180;2023-04-24T09:10:08;8.20;99.90
11284;DHT22;5698;47.332;11.180;2023-04-24T09:12:35;8.20;99.90
11284;DHT22;5698;47.332;11.180;2023-04-24T09:15:03;8.20;99.90
11284;DHT22;5698;47.332;11.180;2023-04-24T09:17:30;8.30;99.90
11284;DHT22;5698;47.332;11.180;2023-04-24T09:19:57;8.20;99.90
11284;DHT22;5698;47.332;11.180;2023-04-24T09:22:24;8.10;99.90
11284;DHT22;5698;47.332;11.180;2023-04-24T09:25:02;8.10;99.90
11284;DHT22;5698;47.332;11.180;2023-04-24T09:27:30;8.10;99.90
11284;DHT22;5698;47.332;11.180;2023-04-24T09:29:58;8.20;99.90
11284;DHT22;5698;47.332;11.180;2023-04-24T09:32:25;8.10;99.90
11284;DHT22;5698;47.332;11.180;2023-04-24T09:35:08;8.30;99.90
11284;DHT22;5698;47.332;11.180;2023-04-24T09:37:37;8.50;99.90
11284;DHT22;5698;47.332;11.180;2023-04-24T09:40:13;8.60;99.90
11284;DHT22;5698;47.332;11.180;2023-04-24T09:42:43;8.60;99.90
11284;DHT22;5698;47.332;11.180;2023-04-24T09:45:11;8.70;99.90
11284;DHT22;5698;47.332;11.180;2023-04-24T09:47:38;8.80;99.90
11284;DHT22;5698;47.332;11.180;2023-04-24T09:50:16;8.80;99.90
11284;DHT22;5698;47.332;11.180;2023-04-24T09:52:44;8.90;99.90
11284;DHT22;5698;47.332;11.180;2023-04-24T09:55:17;8.90;99.90
11284;DHT22;5698;47.332;11.180;2023-04-24T09:57:48;8.80;99.90
11284;DHT22;5698;47.332;11.180;2023-04-24T10:00:22;8.70;99.90
11284;DHT22;5698;47.332;11.180;2023-04-24T10:02:56;8.70;99.90
11284;DHT22;5698;47.332;11.180;2023-04-24T10:05:24;8.70;99.90
11284;DHT22;5698;47.332;11.180;2023-04-24T10:07:54;8.70;99.90
11284;DHT22;5698;47.332;11.180;2023-04-24T10:10:24;8.80;99.90
11284;DHT22;5698;47.332;11.180;2023-04-24T10:12:51;8.80;99.90
11284;DHT22;5698;47.332;11.180;2023-04-24T10:15:19;8.90;99.90
11284;DHT22;5698;47.332;11.180;2023-04-24T10:17:48;9.00;99.90
11284;DHT22;5698;47.332;11.180;2023-04-24T10:20:19;9.00;99.90
11284;DHT22;5698;47.332;11.180;2023-04-24T10:22:48;9.10;99.90
11284;DHT22;5698;47.332;11.180;2023-04-24T10:25:18;9.20;99.90
11284;DHT22;5698;47.332;11.180;2023-04-24T10:27:47;9.30;99.90
11284;DHT22;5698;47.332;11.180;2023-04-24T10:30:15;9.20;99.90
11284;DHT22;5698;47.332;11.180;2023-04-24T10:32:42;9.20;99.90
11284;DHT22;5698;47.332;11.180;2023-04-24T10:35:10;9.40;99.90
11284;DHT22;5698;47.332;11.180;2023-04-24T10:37:40;9.60;99.90
11284;DHT22;5698;47.332;11.180;2023-04-24T10:40:10;9.80;99.90
11284;DHT22;5698;47.332;11.180;2023-04-24T10:42:40;9.90;99.90
11284;DHT22;5698;47.332;11.180;2023-04-24T10:45:18;10.00;99.90
11284;DHT22;5698;47.332;11.180;2023-04-24T10:47:56;10.00;99.90
11284;DHT22;5698;47.332;11.180;2023-04-24T10:50:24;10.00;99.90
11284;DHT22;5698;47.332;11.180;2023-04-24T10:52:52;9.70;99.90
11284;DHT22;5698;47.332;11.180;2023-04-24T10:55:43;9.60;99.90
11284;DHT22;5698;47.332;11.180;2023-04-24T10:58:10;9.60;99.90
11284;DHT22;5698;47.332;11.180;2023-04-24T11:00:40;9.70;99.90
11284;DHT22;5698;47.332;11.180;2023-04-24T11:03:22;9.80;99.90
11284;DHT22;5698;47.332;11.180;2023-04-24T11:05:57;9.70;99.90
11284;DHT22;5698;47.332;11.180;2023-04-24T11:08:27;9.60;99.90
11284;DHT22;5698;47.332;11.180;2023-04-24T11:11:00;9.50;99.90
11284;DHT22;5698;47.332;11.180;2023-04-24T11:16:51;8.60;99.90
11284;DHT22;5698;47.332;11.180;2023-04-24T11:19:22;8.60;99.90
11284;DHT22;5698;47.332;11.180;2023-04-24T11:21:55;8.50;99.90
11284;DHT22;5698;47.332;11.180;2023-04-24T11:24:28;8.00;99.90
11284;DHT22;5698;47.332;11.180;2023-04-24T11:26:57;7.70;99.90
11284;DHT22;5698;47.332;11.180;2023-04-24T11:29:39;7.50;99.90
11284;DHT22;5698;47.332;11.180;2023-04-24T11:32:22;7.50;99.90
11284;DHT22;5698;47.332;11.180;2023-04-24T11:34:51;7.80;99.90
11284;DHT22;5698;47.332;11.180;2023-04-24T11:37:18;8.20;99.90
11284;DHT22;5698;47.332;11.180;2023-04-24T11:39:45;8.50;99.90
11284;DHT22;5698;47.332;11.180;2023-04-24T11:42:15;8.80;99.90
11284;DHT22;5698;47.332;11.180;2023-04-24T11:44:42;9.00;99.90
11284;DHT22;5698;47.332;11.180;2023-04-24T11:47:10;9.10;99.90
11284;DHT22;5698;47.332;11.180;2023-04-24T11:49:38;9.10;99.90
11284;DHT22;5698;47.332;11.180;2023-04-24T11:52:05;9.20;99.90
11284;DHT22;5698;47.332;11.180;2023-04-24T11:54:32;9.30;99.90
11284;DHT22;5698;47.332;11.180;2023-04-24T11:57:04;9.50;99.90
11284;DHT22;5698;47.332;11.180;2023-04-24T11:59:35;9.60;99.90
11284;DHT22;5698;47.332;11.180;2023-04-24T12:02:03;9.60;99.90
11284;DHT22;5698;47.332;11.180;2023-04-24T12:04:39;9.50;99.90
11284;DHT22;5698;47.332;11.180;2023-04-24T12:07:07;9.20;99.90
11284;DHT22;5698;47.332;11.180;2023-04-24T12:09:42;9.20;99.90
11284;DHT22;5698;47.332;11.180;2023-04-24T12:12:10;9.10;99.90
11284;DHT22;5698;47.332;11.180;2023-04-24T12:14:43;9.10;99.90
11284;DHT22;5698;47.332;11.180;2023-04-24T12:17:10;9.10;99.90
11284;DHT22;5698;47.332;11.180;2023-04-24T12:19:45;8.80;99.90
11284;DHT22;5698;47.332;11.180;2023-04-24T12:22:12;8.80;99.90
11284;DHT22;5698;47.332;11.180;2023-04-24T12:25:00;8.70;99.90
11284;DHT22;5698;47.332;11.180;2023-04-24T12:27:31;8.80;99.90
11284;DHT22;5698;47.332;11.180;2023-04-24T12:30:00;8.60;99.90
11284;DHT22;5698;47.332;11.180;2023-04-24T12:32:27;8.70;99.90
11284;DHT22;5698;47.332;11.180;2023-04-24T12:34:55;8.90;99.90
11284;DHT22;5698;47.332;11.180;2023-04-24T12:37:23;9.00;99.90
11284;DHT22;5698;47.332;11.180;2023-04-24T12:40:05;9.10;99.90
11284;DHT22;5698;47.332;11.180;2023-04-24T12:42:33;9.20;99.90
11284;DHT22;5698;47.332;11.180;2023-04-24T12:45:02;9.10;99.90
11284;DHT22;5698;47.332;11.180;2023-04-24T12:47:30;9.20;99.90
11284;DHT22;5698;47.332;11.180;2023-04-24T12:49:59;9.20;99.90
11284;DHT22;5698;47.332;11.180;2023-04-24T12:52:28;9.40;99.90
11284;DHT22;5698;47.332;11.180;2023-04-24T12:54:56;9.50;99.90
11284;DHT22;5698;47.332;11.180;2023-04-24T12:57:23;9.50;99.90
11284;DHT22;5698;47.332;11.180;2023-04-24T12:59:52;9.70;99.90
11284;DHT22;5698;47.332;11.180;2023-04-24T13:02:19;9.80;99.90
11284;DHT22;5698;47.332;11.180;2023-04-24T13:04:47;9.90;99.90
11284;DHT22;5698;47.332;11.180;2023-04-24T13:07:16;10.20;99.90
11284;DHT22;5698;47.332;11.180;2023-04-24T13:09:44;10.50;99.90
11284;DHT22;5698;47.332;11.180;2023-04-24T13:12:11;10.80;99.90
11284;DHT22;5698;47.332;11.180;2023-04-24T13:14:38;11.00;99.90
11284;DHT22;5698;47.332;11.180;2023-04-24T13:17:06;11.10;99.90
11284;DHT22;5698;47.332;11.180;2023-04-24T13:19:36;11.10;99.90
11284;DHT22;5698;47.332;11.180;2023-04-24T13:22:03;11.00;99.90
11284;DHT22;5698;47.332;11.180;2023-04-24T13:24:32;10.90;99.90
11284;DHT22;5698;47.332;11.180;2023-04-24T13:26:59;10.90;99.90
11284;DHT22;5698;47.332;11.180;2023-04-24T13:29:27;10.90;99.90
11284;DHT22;5698;47.332;11.180;2023-04-24T13:31:54;10.60;99.90
11284;DHT22;5698;47.332;11.180;2023-04-24T13:34:22;10.10;99.90
11284;DHT22;5698;47.332;11.180;2023-04-24T13:36:49;10.00;99.90
11284;DHT22;5698;47.332;11.180;2023-04-24T13:39:17;9.90;99.90
11284;DHT22;5698;47.332;11.180;2023-04-24T13:41:45;10.00;99.90
11284;DHT22;5698;47.332;11.180;2023-04-24T13:44:13;10.00;99.90
11284;DHT22;5698;47.332;11.180;2023-04-24T13:46:41;9.60;99.90
11284;DHT22;5698;47.332;11.180;2023-04-24T13:49:09;9.20;99.90
11284;DHT22;5698;47.332;11.180;2023-04-24T13:51:36;9.00;99.90
11284;DHT22;5698;47.332;11.180;2023-04-24T13:54:04;8.90;99.90
11284;DHT22;5698;47.332;11.180;2023-04-24T13:56:31;8.60;99.90
11284;DHT22;5698;47.332;11.180;2023-04-24T13:58:59;8.40;99.90
11284;DHT22;5698;47.332;11.180;2023-04-24T14:01:26;8.40;99.90
11284;DHT22;5698;47.332;11.180;2023-04-24T14:03:55;8.20;99.90
11284;DHT22;5698;47.332;11.180;2023-04-24T14:06:22;7.90;99.90
11284;DHT22;5698;47.332;11.180;2023-04-24T14:08:49;8.00;99.90
11284;DHT22;5698;47.332;11.180;2023-04-24T14:11:17;8.30;99.90
11284;DHT22;5698;47.332;11.180;2023-04-24T14:13:45;8.20;99.90
11284;DHT22;5698;47.332;11.180;2023-04-24T14:16:13;8.40;99.90
11284;DHT22;5698;47.332;11.180;2023-04-24T14:18:41;8.10;99.90
11284;DHT22;5698;47.332;11.180;2023-04-24T14:21:08;8.10;99.90
11284;DHT22;5698;47.332;11.180;2023-04-24T14:23:35;8.10;99.90
11284;DHT22;5698;47.332;11.180;2023-04-24T14:26:02;8.10;99.90
11284;DHT22;5698;47.332;11.180;2023-04-24T14:28:29;8.20;99.90
11284;DHT22;5698;47.332;11.180;2023-04-24T14:30:56;8.30;99.90
11284;DHT22;5698;47.332;11.180;2023-04-24T14:33:24;8.40;99.90
11284;DHT22;5698;47.332;11.180;2023-04-24T14:35:51;8.40;99.90
11284;DHT22;5698;47.332;11.180;2023-04-24T14:38:18;8.30;99.90
11284;DHT22;5698;47.332;11.180;2023-04-24T14:40:45;8.30;99.90
11284;DHT22;5698;47.332;11.180;2023-04-24T14:43:12;8.20;99.90
11284;DHT22;5698;47.332;11.180;2023-04-24T14:45:39;8.30;99.90
11284;DHT22;5698;47.332;11.180;2023-04-24T14:48:07;8.50;99.90
11284;DHT22;5698;47.332;11.180;2023-04-24T14:50:36;8.50;99.90
11284;DHT22;5698;47.332;11.180;2023-04-24T14:53:03;8.50;99.90
11284;DHT22;5698;47.332;11.180;2023-04-24T14:55:30;8.60;99.90
11284;DHT22;5698;47.332;11.180;2023-04-24T14:57:57;8.70;99.90
11284;DHT22;5698;47.332;11.180;2023-04-24T15:00:24;8.90;99.90
11284;DHT22;5698;47.332;11.180;2023-04-24T15:02:51;8.80;99.90
11284;DHT22;5698;47.332;11.180;2023-04-24T15:05:18;8.80;99.90
11284;DHT22;5698;47.332;11.180;2023-04-24T15:07:46;8.80;99.90
11284;DHT22;5698;47.332;11.180;2023-04-24T15:10:13;8.80;99.90
11284;DHT22;5698;47.332;11.180;2023-04-24T15:12:40;8.40;99.90
11284;DHT22;5698;47.332;11.180;2023-04-24T15:15:08;8.20;99.90
11284;DHT22;5698;47.332;11.180;2023-04-24T15:17:35;8.00;99.90
11284;DHT22;5698;47.332;11.180;2023-04-24T15:20:03;8.00;99.90
11284;DHT22;5698;47.332;11.180;2023-04-24T15:22:32;7.90;99.90
11284;DHT22;5698;47.332;11.180;2023-04-24T15:25:00;7.80;99.90
11284;DHT22;5698;47.332;11.180;2023-04-24T15:27:38;7.90;99.90
11284;DHT22;5698;47.332;11.180;2023-04-24T15:30:06;7.80;99.90
11284;DHT22;5698;47.332;11.180;2023-04-24T15:32:34;7.80;99.90
11284;DHT22;5698;47.332;11.180;2023-04-24T15:35:01;7.70;99.90
11284;DHT22;5698;47.332;11.180;2023-04-24T15:37:27;7.60;99.90
11284;DHT22;5698;47.332;11.180;2023-04-24T15:39:54;7.50;99.90
11284;DHT22;5698;47.332;11.180;2023-04-24T15:42:23;7.40;99.90
11284;DHT22;5698;47.332;11.180;2023-04-24T15:44:50;7.40;99.90
11284;DHT22;5698;47.332;11.180;2023-04-24T15:47:17;7.40;99.90
11284;DHT22;5698;47.332;11.180;2023-04-24T15:49:45;7.30;99.90
11284;DHT22;5698;47.332;11.180;2023-04-24T15:52:12;7.30;99.90
11284;DHT22;5698;47.332;11.180;2023-04-24T15:54:39;7.20;99.90